Ophir, Kentucky
Current Conditions -  °F | °C
As of 1:35 AM on Monday 24 Nov 2014 (Local Time) from KSJS Reporting Station
Overcast Overcast  
Wind Chill: 63°   Ceiling: 3400
Heat Index: 63°   Visibility: 10mi
Dew Point: 53°   Wind: 15mph
Humidity: 69%   Direction: 220°SW
Pressure: 29.5"   Gusts: 39mph
Location:  37.91°N, 83.01°W
Report Text: KSJS 240635Z AUTO 22013G34KT 10SM BKN034 OVC041 17/12 A2950 RMK AO2 T01730116
Loading
Personal Weather Stations






























Interactive Weather Map New forecast layout! Learn more

10-Day Weather Forecast

Advertisements
Track Severe Weather on mobile